הכול
Fitzroy Crossing Airport (Fitzroy Crossing, Western Australia) FIZ מזג אוויר
|
Fitzroy Crossing, Western Australia (FIZ / YFTZ)
שמים בהירים
רוחות קלות |
|
25 °C |
FIZ Terminal Area Forecast
| Date | Time (AWST) | Flight Rules | Wind Dir. | Speed | Type | Height AGL (ft) | Visibility | Remarks | ||||||
|---|---|---|---|---|---|---|---|---|---|---|---|---|---|---|
Recent FIZ METAR history
| Date | Time (AWST) | Flight Rules | Wind Dir. | Speed | Type | Height AGL (ft) | Visibility | Temp (°C) | Temp (°F) | Dew Point (°C) | Dew Point (°F) | Rel. Humid. | Pressure | Density Altitude | Remarks |
|---|---|---|---|---|---|---|---|---|---|---|---|---|---|---|---|
| 05-ספט | 22:00 | n/a | 330° | 4 kt | Missing | 25° | 77° | 7° | 44° | 32% | 1014 mb | 1,545 ft | |||
| 05-ספט | 21:00 | n/a | 260° | 3 kt | Missing | 27° | 80° | 8° | 46° | 30% | 1014 mb | 1,785 ft | |||
| 05-ספט | 20:00 | n/a | 320° | 5 kt | Missing | 28° | 82° | 7° | 44° | 27% | 1014 mb | 1,905 ft | |||
| 05-ספט | 19:00 | n/a | Calm | Missing | 30° | 86° | 9° | 48° | 27% | 1014 mb | 2,145 ft | ||||
| 05-ספט | 18:00 | n/a | 340° | 3 kt | Missing | 32° | 89° | 7° | 44° | 21% | 1013 mb | 2,414 ft | |||
| 05-ספט | 17:00 | n/a | 330° | 4 kt | Missing | 35° | 95° | 8° | 46° | 19% | 1012 mb | 2,804 ft | |||
| 05-ספט | 16:00 | n/a | 110° | 6 kt | Missing | 36° | 96° | 8° | 46° | 18% | 1012 mb | 2,924 ft | |||
| 05-ספט | 15:00 | n/a | 70° | 6 kt | Missing | 37° | 98° | 9° | 48° | 18% | 1012 mb | 3,044 ft | |||
| 05-ספט | 14:00 | n/a | 360° | 4 kt | Missing | 37° | 98° | 8° | 46° | 17% | 1012 mb | 3,044 ft | |||
| 05-ספט | 13:00 | n/a | 210° | 6 kt | Missing | 36° | 96° | 8° | 46° | 18% | 1013 mb | 2,894 ft | |||
| 05-ספט | 12:00 | n/a | 210° | 6 kt | Missing | 35° | 95° | 9° | 48° | 20% | 1014 mb | 2,745 ft | |||
| 05-ספט | 11:00 | n/a | 170° | 6 kt | Missing | 34° | 93° | 11° | 51° | 25% | 1015 mb | 2,595 ft | |||
| 05-ספט | 10:00 | n/a | 120° | 3 kt | Missing | 32° | 89° | 10° | 50° | 26% | 1016 mb | 2,326 ft | |||
| 05-ספט | 09:00 | n/a | 320° | 4 kt | Missing | 30° | 86° | 12° | 53° | 33% | 1017 mb | 2,056 ft | |||
| 05-ספט | 08:00 | n/a | 340° | 5 kt | Missing | 25° | 77° | 16° | 60° | 57% | 1017 mb | 1,456 ft | |||
| 05-ספט | 07:00 | n/a | 330° | 4 kt | Missing | 22° | 71° | 17° | 62° | 73% | 1017 mb | 1,096 ft | |||
| 05-ספט | 06:00 | n/a | 350° | 6 kt | Missing | 19° | 66° | 16° | 60° | 83% | 1016 mb | 766 ft | |||
| 05-ספט | 05:00 | n/a | 310° | 5 kt | Missing | 20° | 68° | 16° | 60° | 78% | 1015 mb | 915 ft | |||
| 05-ספט | 04:00 | n/a | 330° | 5 kt | Missing | 20° | 68° | 16° | 60° | 78% | 1015 mb | 915 ft | |||
| 05-ספט | 03:00 | n/a | 340° | 7 kt | Missing | 21° | 69° | 16° | 60° | 73% | 1014 mb | 1,065 ft | |||
| 05-ספט | 02:00 | n/a | 360° | 6 kt | Missing | 23° | 73° | 15° | 59° | 61% | 1014 mb | 1,305 ft | |||
| 05-ספט | 01:00 | n/a | 330° | 6 kt | Missing | 24° | 75° | 14° | 57° | 54% | 1014 mb | 1,425 ft | |||
| 05-ספט | 00:00 | n/a | 340° | 6 kt | Missing | 24° | 75° | 9° | 48° | 38% | 1015 mb | 1,395 ft | |||
| 04-ספט | 23:00 | n/a | 350° | 5 kt | Missing | 25° | 77° | 6° | 42° | 30% | 1015 mb | 1,515 ft |
כניסה לאתר
| אין תמיכה בדפדפן שלך. שדרג את הדפדפן שלך |
